Ship Status Report: callsign AMOUK21

sailwx.info

Track history (hours):
 
Tides and Currents Weather Stations Pressure Air Temp Water Temp Dewpoint Dewpoint Depression Visibility Wind Speed Wind Dir Waves Ship Positions

Callsign AMOUK21 (name unknown)

Last reported at 2015-Feb-21 05:00 UTC. Time now 2015-Mar-01 19:24 UTC.
Position N 57°54' W 006°48'.
Warning: this ship's position is 8 days out of date.

Barometer 993.0 mb
Air temperature 4.0 ° C
Dewpoint -1.3 ° C

Date/timePositionNaut miles runAvg speedWind from/ knotsBaromVisibWave heightAir tempDewpointWater temp
2015-Feb-21 05:00N 57°54' W 006°48'0 0.0 993.0 4.0-1.3
2015-Feb-21 03:00N 57°54' W 006°48'0 0.0 993.8 3.3-1.5
2015-Feb-21 02:00N 57°54' W 006°48'0 0.0 993.8 3.8-2.0
2015-Feb-21 01:00N 57°54' W 006°48'0 0.0 994.0 3.2-1.5
2015-Feb-21 00:00N 57°54' W 006°48'0 0.0 994.3 2.4-0.1
2015-Feb-20 23:00N 57°54' W 006°48'0 0.0 994.1 2.8-0.0
2015-Feb-20 22:00N 57°54' W 006°48'0 0.0 994.0 3.1 0.1
2015-Feb-20 21:00N 57°54' W 006°48'0 0.0 993.8 3.3 0.9
2015-Feb-20 20:00N 57°54' W 006°48'0 0.0 994.3 3.1 0.2
2015-Feb-20 19:00N 57°54' W 006°48'0 0.0 994.2 3.3 0.2
2015-Feb-20 18:00N 57°54' W 006°48'1515.4 993.3 4.8 0.2
2015-Feb-20 17:00N 57°42' W 006°30'7 6.8 994.1 4.7 0.8
2015-Feb-20 16:00N 57°36' W 006°24'26 8.6 995.3 5.2 1.5
2015-Feb-20 13:00N 57°36' W 007°12'0 0.0 995.9 4.8 2.0
2015-Feb-20 12:00N 57°36' W 007°12'2311.3 996.3 4.4 2.0
2015-Feb-20 10:00N 57°36' W 006°30'14 6.8 995.4 4.9 1.4
2015-Feb-20 08:00N 57°48' W 006°42'7 1.0 995.7 3.6 0.5
2015-Feb-20 01:00N 57°54' W 006°48'0 0.0 999.3 5.0 0.3
2015-Feb-20 00:00N 57°54' W 006°48'9 2.9 999.2 5.4 1.1
2015-Feb-19 21:00N 57°48' W 006°36'1413.6 998.6 5.9 2.9
2015-Feb-19 20:00N 57°36' W 006°24'19 4.8 1000.7 5.1 1.8
2015-Feb-19 16:00N 57°36' W 007°00'1616.1 6.5 2.0
2015-Feb-19 15:00N 57°36' W 006°30'3 3.2 998.2 5.7 2.7
2015-Feb-19 14:00N 57°36' W 006°24'1616.1 1000.5 6.5 2.1
2015-Feb-19 13:00N 57°36' W 006°54'10 9.6 1000.7 5.9 2.9
2015-Feb-19 12:00N 57°36' W 007°12'22 3.7 999.9 5.0 1.0
2015-Feb-19 06:00N 57°54' W 006°48'0 0.0 1001.2 4.6 1.9
2015-Feb-19 05:00N 57°54' W 006°48'0 0.0 1001.9 6.6 3.0
2015-Feb-19 04:00N 57°54' W 006°48'0 0.0 1002.5 5.8 2.6
2015-Feb-19 03:00N 57°54' W 006°48'0 0.0 1002.6 7.4 2.6
2015-Feb-19 02:00N 57°54' W 006°48'0 0.0 1003.5 7.5 4.8
2015-Feb-19 01:00N 57°54' W 006°48'0 0.0 1003.4 7.8 5.5
2015-Feb-19 00:00N 57°54' W 006°48'0 0.0 1002.7 8.2 6.8
2015-Feb-18 20:00N 57°54' W 006°48'0 0.0 1006.5 9.2 8.5
2015-Feb-18 19:00N 57°54' W 006°48'0 0.0 1007.8 9.2 8.5
2015-Feb-18 16:00N 57°54' W 006°48'0 0.0 1010.4 9.7 8.9
2015-Feb-18 15:00N 57°54' W 006°48'0 0.0 1011.8 9.6 8.8
2015-Feb-18 14:00N 57°54' W 006°48'0 0.0 1012.9 9.3 8.6
2015-Feb-18 13:00N 57°54' W 006°48'0 0.0 1014.4 8.9 8.1
2015-Feb-18 12:00N 57°54' W 006°48'0 0.0 1014.9 9.6 8.7
2015-Feb-18 11:00N 57°54' W 006°48'0 0.0 1015.4 9.6 8.7
2015-Feb-18 10:00N 57°54' W 006°48'0 0.0 1015.9 10.2 8.9
2015-Feb-18 09:00N 57°54' W 006°48'0 0.0 1015.9 10.4 9.0
2015-Feb-18 08:00N 57°54' W 006°48'0 0.0 1016.3 10.2 8.9
2015-Feb-18 07:00N 57°54' W 006°48'0 0.0 1016.4 10.2 9.0
2015-Feb-18 06:00N 57°54' W 006°48'0 0.0 1016.5 10.2 8.9
2015-Feb-18 05:00N 57°54' W 006°48'0 0.0 1016.7 10.5 9.2
2015-Feb-18 04:00N 57°54' W 006°48'0 0.0 1017.3 10.2 9.0
2015-Feb-18 03:00N 57°54' W 006°48'0 0.0 1017.9 10.0 8.7
2015-Feb-18 01:00N 57°54' W 006°48'0 0.0 1018.1 10.1 8.7
2015-Feb-18 00:00N 57°54' W 006°48'0 0.0 1018.5 9.6 8.5
2015-Feb-17 23:00N 57°54' W 006°48'0 0.0 1019.4 8.7 7.7
2015-Feb-17 22:00N 57°54' W 006°48'0 0.0 1020.3 8.9 7.7
2015-Feb-17 20:00N 57°54' W 006°48'0 0.0 1021.1 8.7 7.6
2015-Feb-17 19:00N 57°54' W 006°48'7 6.8 1021.7 8.4 7.1
2015-Feb-17 18:00N 57°48' W 006°42'1515.4 1020.6 7.8 6.5
2015-Feb-17 17:00N 57°36' W 007°00'3 3.2 1022.2 7.9 6.6
2015-Feb-17 16:00N 57°36' W 007°06'1616.1 1020.4 7.8 5.9
2015-Feb-17 15:00N 57°36' W 006°36'6 6.4 1021.2 8.3 5.3
2015-Feb-17 14:00N 57°36' W 006°24'7 6.8 1023.5 8.3 5.1
2015-Feb-17 13:00N 57°42' W 006°30'1515.4 1022.1 8.7 5.7
2015-Feb-17 12:00N 57°54' W 006°48'7 6.8 1022.5 8.2 5.4
2015-Feb-17 11:00N 57°48' W 006°42'1515.4 1020.4 8.1 5.1
2015-Feb-17 10:00N 57°36' W 006°24'3 3.2 1022.8 8.2 4.1
2015-Feb-17 09:00N 57°36' W 006°30'1616.1 1021.4 7.8 4.4
2015-Feb-17 08:00N 57°36' W 007°00'6 3.2 1020.6 7.3 4.3
2015-Feb-17 06:00N 57°36' W 007°12'0 0.0 1017.3 6.3 3.8
2015-Feb-17 05:00N 57°36' W 007°12'0 0.0 1016.5 6.2 3.2
2015-Feb-17 04:00N 57°36' W 007°12'0 0.0 1015.1 7.2 2.2
2015-Feb-17 00:00N 57°36' W 007°12'0 0.0 1015.0 5.0 1.5
2015-Feb-16 23:00N 57°36' W 007°12'10 3.2 1015.1 4.7 0.2
2015-Feb-16 20:00N 57°36' W 006°54'14 4.5 1015.1 4.3-1.3
2015-Feb-16 17:00N 57°48' W 006°42'7 6.8 1012.7 4.9-1.5
2015-Feb-16 16:00N 57°54' W 006°48'1515.4 1011.4 4.3-0.0
2015-Feb-16 15:00N 57°42' W 006°30'7 6.8 1009.8 5.6-0.8
2015-Feb-16 14:00N 57°36' W 006°24'10 9.6 1010.6 6.3-0.7
2015-Feb-16 13:00N 57°36' W 006°42'1616.1 1010.1 6.1 0.4
2015-Feb-16 12:00N 57°36' W 007°12'10 9.6 1009.6 4.9 0.5
2015-Feb-16 11:00N 57°36' W 006°54'1616.1 1007.9 6.2-1.5
2015-Feb-16 10:00N 57°36' W 006°24'0 0.0 1006.8 5.3 1.6
2015-Feb-16 09:00N 57°36' W 006°24'1515.4 1005.4 5.5 3.1
2015-Feb-16 08:00N 57°48' W 006°42'7 6.8 1003.9 5.7 3.2
2015-Feb-16 07:00N 57°54' W 006°48'0 0.0 1002.5 5.7 2.7
2015-Feb-16 06:00N 57°54' W 006°48'0 0.0 1002.2 6.0 2.4
2015-Feb-16 05:00N 57°54' W 006°48'0 0.0 1001.9 6.3 3.1
2015-Feb-16 04:00N 57°54' W 006°48'0 0.0 1001.6 6.5 2.6
2015-Feb-16 03:00N 57°54' W 006°48'0 0.0 1001.5 6.5 3.0
2015-Feb-16 02:00N 57°54' W 006°48'0 0.0 1001.8 6.8 2.8
2015-Feb-16 01:00N 57°54' W 006°48'0 0.0 1001.4 6.7 3.9
2015-Feb-16 00:00N 57°54' W 006°48'0 0.0 1001.4 6.5 4.2
2015-Feb-15 23:00N 57°54' W 006°48'0 0.0 1001.3 6.5 4.8
2015-Feb-15 22:00N 57°54' W 006°48'0 0.0 1001.4 6.3 4.9
2015-Feb-15 21:00N 57°54' W 006°48'0 0.0 1001.1 5.3 3.8
2015-Feb-15 19:00N 57°54' W 006°48'0 0.0 1001.3 6.8 5.3
2015-Feb-15 18:00N 57°54' W 006°48'0 0.0 1001.3 7.0 5.2
2015-Feb-15 17:00N 57°54' W 006°48'0 0.0 1001.6 6.8 4.9
2015-Feb-15 16:00N 57°54' W 006°48'0 0.0 1001.5 6.9 5.0
2015-Feb-15 15:00N 57°54' W 006°48'0 0.0 1002.0 6.9 4.8
2015-Feb-15 13:00N 57°54' W 006°48'0 0.0 1003.3 8.2 3.6
2015-Feb-15 10:00N 57°54' W 006°48'0 0.0 1004.9 8.1 3.1
2015-Feb-15 04:00N 57°54' W 006°48'0 0.0 1007.1 7.8 4.3
2015-Feb-15 02:00N 57°54' W 006°48'0 0.0 1007.4 7.2 4.4
2015-Feb-15 00:00N 57°54' W 006°48'0 0.0 1007.1 7.6 4.2
2015-Feb-14 21:00N 57°54' W 006°48'7 6.8 1007.4 7.9 4.7
2015-Feb-14 20:00N 57°48' W 006°42'1515.4 1007.1 7.7 4.4
2015-Feb-14 19:00N 57°36' W 006°24'6 6.4 1007.2 6.2 2.0
2015-Feb-14 18:00N 57°36' W 006°36'1616.1 1006.2 7.6 3.2
2015-Feb-14 17:00N 57°36' W 007°06'3 3.2 1005.3 7.3 4.3
2015-Feb-14 16:00N 57°36' W 007°12'1616.1 1005.1 7.4 3.4
2015-Feb-14 15:00N 57°36' W 006°42'18 6.1 1005.2 8.6 2.5
2015-Feb-14 12:00N 57°54' W 006°48'2211.0 1006.7 7.3 3.6
2015-Feb-14 10:00N 57°36' W 006°24'3 3.2 1006.7 3.9 1.6
2015-Feb-14 09:00N 57°36' W 006°30'1312.9 1006.7 3.6 1.3
2015-Feb-14 08:00N 57°36' W 006°54'10 9.6 1006.4 6.0 4.2
2015-Feb-14 07:00N 57°36' W 007°12'0 0.0 1005.8 2.4 1.4
2015-Feb-14 06:00N 57°36' W 007°12'0 0.0 1005.4 3.2 2.2
2015-Feb-14 01:00N 57°36' W 007°12'0 0.0 1003.9 2.2 1.1
2015-Feb-14 00:00N 57°36' W 007°12'0 0.0 1003.6 1.3-0.1
2015-Feb-13 22:00N 57°36' W 007°12'0 0.0 1002.7 3.7 1.9
2015-Feb-13 21:00N 57°36' W 007°12'6 6.4 1001.9 3.7 1.5
2015-Feb-13 20:00N 57°36' W 007°00'19 9.6 1001.1 7.2 3.1
2015-Feb-13 18:00N 57°36' W 006°24'1515.4 999.1 6.7 2.1
2015-Feb-13 17:00N 57°48' W 006°42'7 6.8 998.3 7.6 3.4
2015-Feb-13 16:00N 57°54' W 006°48'1413.6 997.7 7.3 2.8
2015-Feb-13 15:00N 57°42' W 006°36'9 8.8 996.8 7.8 1.9
2015-Feb-13 14:00N 57°36' W 006°24'1312.9 996.2 7.4 1.6
2015-Feb-13 13:00N 57°36' W 006°48'1312.9 995.9 7.2 2.4
2015-Feb-13 12:00N 57°36' W 007°12'10 9.6 995.6 7.1 2.5
2015-Feb-13 11:00N 57°36' W 006°54'1616.1 995.5 7.0 2.6
2015-Feb-13 10:00N 57°36' W 006°24'0 0.0 995.4 7.3 1.8
2015-Feb-13 09:00N 57°36' W 006°24'1515.4 995.4 6.8 2.4
2015-Feb-13 08:00N 57°48' W 006°42'7 6.8 995.6 7.0 3.3
2015-Feb-13 07:00N 57°54' W 006°48'0 0.0 996.0 6.8 2.9
2015-Feb-13 06:00N 57°54' W 006°48'0 0.0 996.1 6.8 2.7
2015-Feb-13 05:00N 57°54' W 006°48'0 0.0 996.6 6.7 2.7
2015-Feb-13 04:00N 57°54' W 006°48'0 0.0 997.0 6.6 3.2
2015-Feb-13 03:00N 57°54' W 006°48'0 0.0 998.1 6.5 3.1
2015-Feb-13 02:00N 57°54' W 006°48'0 0.0 999.0 6.3 2.2
2015-Feb-13 01:00N 57°54' W 006°48'0 0.0 1000.2 6.1 1.9
2015-Feb-13 00:00N 57°54' W 006°48'0 0.0 1001.5 5.8 1.6
2015-Feb-12 23:00N 57°54' W 006°48'0 0.0 1002.9 5.7 2.4
2015-Feb-12 22:00N 57°54' W 006°48'0 0.0 1004.0 5.9 2.1
2015-Feb-12 21:00N 57°54' W 006°48'0 0.0 1005.3 6.5 1.4
2015-Feb-12 20:00N 57°54' W 006°48'0 0.0 1006.4 6.6 1.9
2015-Feb-12 19:00N 57°54' W 006°48'0 0.0 1007.0 6.8 3.2
2015-Feb-12 18:00N 57°54' W 006°48'0 0.0 1007.7 6.9 4.0
2015-Feb-12 17:00N 57°54' W 006°48'2020.4 1008.1 7.2 4.4
2015-Feb-12 16:00N 57°36' W 006°30'3 3.2 1009.4 7.5 4.2
2015-Feb-12 15:00N 57°36' W 006°24'0 0.0 1009.5 7.4 4.4
2015-Feb-12 14:00N 57°36' W 006°24'1312.9 1011.5 7.5 4.7
2015-Feb-12 13:00N 57°36' W 006°48'1312.9 1010.6 7.4 5.9
2015-Feb-12 12:00N 57°36' W 007°12'10 9.6 1011.4 7.9 6.0
2015-Feb-12 11:00N 57°36' W 006°54'16 8.0 1010.6 7.8 6.5
2015-Feb-12 09:00N 57°36' W 006°24'26 8.6 1012.7 7.7 6.4
2015-Feb-12 06:00N 57°36' W 007°12'0 0.0 1012.6 7.2 6.2
2015-Feb-12 05:00N 57°36' W 007°12'0 0.0 1012.7 7.4 6.5
2015-Feb-12 04:00N 57°36' W 007°12'0 0.0 1012.7 7.5 6.6
2015-Feb-12 03:00N 57°36' W 007°12'0 0.0 1012.9 7.2 6.3
2015-Feb-12 02:00N 57°36' W 007°12'0 0.0 1013.1 6.9 5.8
2015-Feb-12 01:00N 57°36' W 007°12'0 0.0 1012.9 7.4 6.3
2015-Feb-12 00:00N 57°36' W 007°12'0 0.0 1013.0 7.8 6.6
2015-Feb-11 23:00N 57°36' W 007°12'0 0.0 1013.0 7.7 6.5
2015-Feb-11 22:00N 57°36' W 007°12'0 0.0 1013.1 7.5 6.3
2015-Feb-11 21:00N 57°36' W 007°12'10 9.6 1013.2 7.4 6.0
2015-Feb-11 20:00N 57°36' W 006°54'18 4.6 1012.2 7.9 6.4
2015-Feb-11 16:00N 57°54' W 006°48'1515.4 1013.0 6.1 4.1
2015-Feb-11 15:00N 57°42' W 006°30'7 6.8 1014.2 5.7 3.2
2015-Feb-11 14:00N 57°36' W 006°24'2612.9 1014.7 4.8 2.1
2015-Feb-11 12:00N 57°36' W 007°12'2612.9 1015.6 4.7 2.8
2015-Feb-11 10:00N 57°36' W 006°24'0 0.0 1016.6 4.6 2.5
2015-Feb-11 09:00N 57°36' W 006°24'   1017.5 5.0 2.9
Track history (hours):
 
Tides and Currents Weather Stations Pressure Air Temp Water Temp Dewpoint Dewpoint Depression Visibility Wind Speed Wind Dir Waves Ship Positions

Callsign AMOUK21 (name unknown)

Last reported at 2015-Feb-21 05:00 UTC. Time now 2015-Mar-01 19:24 UTC.
Position N 57°54' W 006°48'.
Warning: this ship's position is 8 days out of date.

Barometer 993.0 mb
Air temperature 4.0 ° C
Dewpoint -1.3 ° C

Date/timePositionNaut miles runAvg speedWind from/ knotsBaromVisibWave heightAir tempDewpointWater temp
2015-Feb-21 05:00N 57°54' W 006°48'0 0.0 993.0 4.0-1.3
2015-Feb-21 03:00N 57°54' W 006°48'0 0.0 993.8 3.3-1.5
2015-Feb-21 02:00N 57°54' W 006°48'0 0.0 993.8 3.8-2.0
2015-Feb-21 01:00N 57°54' W 006°48'0 0.0 994.0 3.2-1.5
2015-Feb-21 00:00N 57°54' W 006°48'0 0.0 994.3 2.4-0.1
2015-Feb-20 23:00N 57°54' W 006°48'0 0.0 994.1 2.8-0.0
2015-Feb-20 22:00N 57°54' W 006°48'0 0.0 994.0 3.1 0.1
2015-Feb-20 21:00N 57°54' W 006°48'0 0.0 993.8 3.3 0.9
2015-Feb-20 20:00N 57°54' W 006°48'0 0.0 994.3 3.1 0.2
2015-Feb-20 19:00N 57°54' W 006°48'0 0.0 994.2 3.3 0.2
2015-Feb-20 18:00N 57°54' W 006°48'1515.4 993.3 4.8 0.2
2015-Feb-20 17:00N 57°42' W 006°30'7 6.8 994.1 4.7 0.8
2015-Feb-20 16:00N 57°36' W 006°24'26 8.6 995.3 5.2 1.5
2015-Feb-20 13:00N 57°36' W 007°12'0 0.0 995.9 4.8 2.0
2015-Feb-20 12:00N 57°36' W 007°12'2311.3 996.3 4.4 2.0
2015-Feb-20 10:00N 57°36' W 006°30'14 6.8 995.4 4.9 1.4
2015-Feb-20 08:00N 57°48' W 006°42'7 1.0 995.7 3.6 0.5
2015-Feb-20 01:00N 57°54' W 006°48'0 0.0 999.3 5.0 0.3
2015-Feb-20 00:00N 57°54' W 006°48'9 2.9 999.2 5.4 1.1
2015-Feb-19 21:00N 57°48' W 006°36'1413.6 998.6 5.9 2.9
2015-Feb-19 20:00N 57°36' W 006°24'19 4.8 1000.7 5.1 1.8
2015-Feb-19 16:00N 57°36' W 007°00'1616.1 6.5 2.0
2015-Feb-19 15:00N 57°36' W 006°30'3 3.2 998.2 5.7 2.7
2015-Feb-19 14:00N 57°36' W 006°24'1616.1 1000.5 6.5 2.1
2015-Feb-19 13:00N 57°36' W 006°54'10 9.6 1000.7 5.9 2.9
2015-Feb-19 12:00N 57°36' W 007°12'22 3.7 999.9 5.0 1.0
2015-Feb-19 06:00N 57°54' W 006°48'0 0.0 1001.2 4.6 1.9
2015-Feb-19 05:00N 57°54' W 006°48'0 0.0 1001.9 6.6 3.0
2015-Feb-19 04:00N 57°54' W 006°48'0 0.0 1002.5 5.8 2.6
2015-Feb-19 03:00N 57°54' W 006°48'0 0.0 1002.6 7.4 2.6
2015-Feb-19 02:00N 57°54' W 006°48'0 0.0 1003.5 7.5 4.8
2015-Feb-19 01:00N 57°54' W 006°48'0 0.0 1003.4 7.8 5.5
2015-Feb-19 00:00N 57°54' W 006°48'0 0.0 1002.7 8.2 6.8
2015-Feb-18 20:00N 57°54' W 006°48'0 0.0 1006.5 9.2 8.5
2015-Feb-18 19:00N 57°54' W 006°48'0 0.0 1007.8 9.2 8.5
2015-Feb-18 16:00N 57°54' W 006°48'0 0.0 1010.4 9.7 8.9
2015-Feb-18 15:00N 57°54' W 006°48'0 0.0 1011.8 9.6 8.8
2015-Feb-18 14:00N 57°54' W 006°48'0 0.0 1012.9 9.3 8.6
2015-Feb-18 13:00N 57°54' W 006°48'0 0.0 1014.4 8.9 8.1
2015-Feb-18 12:00N 57°54' W 006°48'0 0.0 1014.9 9.6 8.7
2015-Feb-18 11:00N 57°54' W 006°48'0 0.0 1015.4 9.6 8.7
2015-Feb-18 10:00N 57°54' W 006°48'0 0.0 1015.9 10.2 8.9
2015-Feb-18 09:00N 57°54' W 006°48'0 0.0 1015.9 10.4 9.0
2015-Feb-18 08:00N 57°54' W 006°48'0 0.0 1016.3 10.2 8.9
2015-Feb-18 07:00N 57°54' W 006°48'0 0.0 1016.4 10.2 9.0
2015-Feb-18 06:00N 57°54' W 006°48'0 0.0 1016.5 10.2 8.9
2015-Feb-18 05:00N 57°54' W 006°48'0 0.0 1016.7 10.5 9.2
2015-Feb-18 04:00N 57°54' W 006°48'0 0.0 1017.3 10.2 9.0
2015-Feb-18 03:00N 57°54' W 006°48'0 0.0 1017.9 10.0 8.7
2015-Feb-18 01:00N 57°54' W 006°48'0 0.0 1018.1 10.1 8.7
2015-Feb-18 00:00N 57°54' W 006°48'0 0.0 1018.5 9.6 8.5
2015-Feb-17 23:00N 57°54' W 006°48'0 0.0 1019.4 8.7 7.7
2015-Feb-17 22:00N 57°54' W 006°48'0 0.0 1020.3 8.9 7.7
2015-Feb-17 20:00N 57°54' W 006°48'0 0.0 1021.1 8.7 7.6
2015-Feb-17 19:00N 57°54' W 006°48'7 6.8 1021.7 8.4 7.1
2015-Feb-17 18:00N 57°48' W 006°42'1515.4 1020.6 7.8 6.5
2015-Feb-17 17:00N 57°36' W 007°00'3 3.2 1022.2 7.9 6.6
2015-Feb-17 16:00N 57°36' W 007°06'1616.1 1020.4 7.8 5.9
2015-Feb-17 15:00N 57°36' W 006°36'6 6.4 1021.2 8.3 5.3
2015-Feb-17 14:00N 57°36' W 006°24'7 6.8 1023.5 8.3 5.1
2015-Feb-17 13:00N 57°42' W 006°30'1515.4 1022.1 8.7 5.7
2015-Feb-17 12:00N 57°54' W 006°48'7 6.8 1022.5 8.2 5.4
2015-Feb-17 11:00N 57°48' W 006°42'1515.4 1020.4 8.1 5.1
2015-Feb-17 10:00N 57°36' W 006°24'3 3.2 1022.8 8.2 4.1
2015-Feb-17 09:00N 57°36' W 006°30'1616.1 1021.4 7.8 4.4
2015-Feb-17 08:00N 57°36' W 007°00'6 3.2 1020.6 7.3 4.3
2015-Feb-17 06:00N 57°36' W 007°12'0 0.0 1017.3 6.3 3.8
2015-Feb-17 05:00N 57°36' W 007°12'0 0.0 1016.5 6.2 3.2
2015-Feb-17 04:00N 57°36' W 007°12'0 0.0 1015.1 7.2 2.2
2015-Feb-17 00:00N 57°36' W 007°12'0 0.0 1015.0 5.0 1.5
2015-Feb-16 23:00N 57°36' W 007°12'10 3.2 1015.1 4.7 0.2
2015-Feb-16 20:00N 57°36' W 006°54'14 4.5 1015.1 4.3-1.3
2015-Feb-16 17:00N 57°48' W 006°42'7 6.8 1012.7 4.9-1.5
2015-Feb-16 16:00N 57°54' W 006°48'1515.4 1011.4 4.3-0.0
2015-Feb-16 15:00N 57°42' W 006°30'7 6.8 1009.8 5.6-0.8
2015-Feb-16 14:00N 57°36' W 006°24'10 9.6 1010.6 6.3-0.7
2015-Feb-16 13:00N 57°36' W 006°42'1616.1 1010.1 6.1 0.4
2015-Feb-16 12:00N 57°36' W 007°12'10 9.6 1009.6 4.9 0.5
2015-Feb-16 11:00N 57°36' W 006°54'1616.1 1007.9 6.2-1.5
2015-Feb-16 10:00N 57°36' W 006°24'0 0.0 1006.8 5.3 1.6
2015-Feb-16 09:00N 57°36' W 006°24'1515.4 1005.4 5.5 3.1
2015-Feb-16 08:00N 57°48' W 006°42'7 6.8 1003.9 5.7 3.2
2015-Feb-16 07:00N 57°54' W 006°48'0 0.0 1002.5 5.7 2.7
2015-Feb-16 06:00N 57°54' W 006°48'0 0.0 1002.2 6.0 2.4
2015-Feb-16 05:00N 57°54' W 006°48'0 0.0 1001.9 6.3 3.1
2015-Feb-16 04:00N 57°54' W 006°48'0 0.0 1001.6 6.5 2.6
2015-Feb-16 03:00N 57°54' W 006°48'0 0.0 1001.5 6.5 3.0
2015-Feb-16 02:00N 57°54' W 006°48'0 0.0 1001.8 6.8 2.8
2015-Feb-16 01:00N 57°54' W 006°48'0 0.0 1001.4 6.7 3.9
2015-Feb-16 00:00N 57°54' W 006°48'0 0.0 1001.4 6.5 4.2
2015-Feb-15 23:00N 57°54' W 006°48'0 0.0 1001.3 6.5 4.8
2015-Feb-15 22:00N 57°54' W 006°48'0 0.0 1001.4 6.3 4.9
2015-Feb-15 21:00N 57°54' W 006°48'0 0.0 1001.1 5.3 3.8
2015-Feb-15 19:00N 57°54' W 006°48'0 0.0 1001.3 6.8 5.3
2015-Feb-15 18:00N 57°54' W 006°48'0 0.0 1001.3 7.0 5.2
2015-Feb-15 17:00N 57°54' W 006°48'0 0.0 1001.6 6.8 4.9
2015-Feb-15 16:00N 57°54' W 006°48'0 0.0 1001.5 6.9 5.0
2015-Feb-15 15:00N 57°54' W 006°48'0 0.0 1002.0 6.9 4.8
2015-Feb-15 13:00N 57°54' W 006°48'0 0.0 1003.3 8.2 3.6
2015-Feb-15 10:00N 57°54' W 006°48'0 0.0 1004.9 8.1 3.1
2015-Feb-15 04:00N 57°54' W 006°48'0 0.0 1007.1 7.8 4.3
2015-Feb-15 02:00N 57°54' W 006°48'0 0.0 1007.4 7.2 4.4
2015-Feb-15 00:00N 57°54' W 006°48'0 0.0 1007.1 7.6 4.2
2015-Feb-14 21:00N 57°54' W 006°48'7 6.8 1007.4 7.9 4.7
2015-Feb-14 20:00N 57°48' W 006°42'1515.4 1007.1 7.7 4.4
2015-Feb-14 19:00N 57°36' W 006°24'6 6.4 1007.2 6.2 2.0
2015-Feb-14 18:00N 57°36' W 006°36'1616.1 1006.2 7.6 3.2
2015-Feb-14 17:00N 57°36' W 007°06'3 3.2 1005.3 7.3 4.3
2015-Feb-14 16:00N 57°36' W 007°12'1616.1 1005.1 7.4 3.4
2015-Feb-14 15:00N 57°36' W 006°42'18 6.1 1005.2 8.6 2.5
2015-Feb-14 12:00N 57°54' W 006°48'2211.0 1006.7 7.3 3.6
2015-Feb-14 10:00N 57°36' W 006°24'3 3.2 1006.7 3.9 1.6
2015-Feb-14 09:00N 57°36' W 006°30'1312.9 1006.7 3.6 1.3
2015-Feb-14 08:00N 57°36' W 006°54'10 9.6 1006.4 6.0 4.2
2015-Feb-14 07:00N 57°36' W 007°12'0 0.0 1005.8 2.4 1.4
2015-Feb-14 06:00N 57°36' W 007°12'0 0.0 1005.4 3.2 2.2
2015-Feb-14 01:00N 57°36' W 007°12'0 0.0 1003.9 2.2 1.1
2015-Feb-14 00:00N 57°36' W 007°12'0 0.0 1003.6 1.3-0.1
2015-Feb-13 22:00N 57°36' W 007°12'0 0.0 1002.7 3.7 1.9
2015-Feb-13 21:00N 57°36' W 007°12'6 6.4 1001.9 3.7 1.5
2015-Feb-13 20:00N 57°36' W 007°00'19 9.6 1001.1 7.2 3.1
2015-Feb-13 18:00N 57°36' W 006°24'1515.4 999.1 6.7 2.1
2015-Feb-13 17:00N 57°48' W 006°42'7 6.8 998.3 7.6 3.4
2015-Feb-13 16:00N 57°54' W 006°48'1413.6 997.7 7.3 2.8
2015-Feb-13 15:00N 57°42' W 006°36'9 8.8 996.8 7.8 1.9
2015-Feb-13 14:00N 57°36' W 006°24'1312.9 996.2 7.4 1.6
2015-Feb-13 13:00N 57°36' W 006°48'1312.9 995.9 7.2 2.4
2015-Feb-13 12:00N 57°36' W 007°12'10 9.6 995.6 7.1 2.5
2015-Feb-13 11:00N 57°36' W 006°54'1616.1 995.5 7.0 2.6
2015-Feb-13 10:00N 57°36' W 006°24'0 0.0 995.4 7.3 1.8
2015-Feb-13 09:00N 57°36' W 006°24'1515.4 995.4 6.8 2.4
2015-Feb-13 08:00N 57°48' W 006°42'7 6.8 995.6 7.0 3.3
2015-Feb-13 07:00N 57°54' W 006°48'0 0.0 996.0 6.8 2.9
2015-Feb-13 06:00N 57°54' W 006°48'0 0.0 996.1 6.8 2.7
2015-Feb-13 05:00N 57°54' W 006°48'0 0.0 996.6 6.7 2.7
2015-Feb-13 04:00N 57°54' W 006°48'0 0.0 997.0 6.6 3.2
2015-Feb-13 03:00N 57°54' W 006°48'0 0.0 998.1 6.5 3.1
2015-Feb-13 02:00N 57°54' W 006°48'0 0.0 999.0 6.3 2.2
2015-Feb-13 01:00N 57°54' W 006°48'0 0.0 1000.2 6.1 1.9
2015-Feb-13 00:00N 57°54' W 006°48'0 0.0 1001.5 5.8 1.6
2015-Feb-12 23:00N 57°54' W 006°48'0 0.0 1002.9 5.7 2.4
2015-Feb-12 22:00N 57°54' W 006°48'0 0.0 1004.0 5.9 2.1
2015-Feb-12 21:00N 57°54' W 006°48'0 0.0 1005.3 6.5 1.4
2015-Feb-12 20:00N 57°54' W 006°48'0 0.0 1006.4 6.6 1.9
2015-Feb-12 19:00N 57°54' W 006°48'0 0.0 1007.0 6.8 3.2
2015-Feb-12 18:00N 57°54' W 006°48'0 0.0 1007.7 6.9 4.0
2015-Feb-12 17:00N 57°54' W 006°48'2020.4 1008.1 7.2 4.4
2015-Feb-12 16:00N 57°36' W 006°30'3 3.2 1009.4 7.5 4.2
2015-Feb-12 15:00N 57°36' W 006°24'0 0.0 1009.5 7.4 4.4
2015-Feb-12 14:00N 57°36' W 006°24'1312.9 1011.5 7.5 4.7
2015-Feb-12 13:00N 57°36' W 006°48'1312.9 1010.6 7.4 5.9
2015-Feb-12 12:00N 57°36' W 007°12'10 9.6 1011.4 7.9 6.0
2015-Feb-12 11:00N 57°36' W 006°54'16 8.0 1010.6 7.8 6.5
2015-Feb-12 09:00N 57°36' W 006°24'26 8.6 1012.7 7.7 6.4
2015-Feb-12 06:00N 57°36' W 007°12'0 0.0 1012.6 7.2 6.2
2015-Feb-12 05:00N 57°36' W 007°12'0 0.0 1012.7 7.4 6.5
2015-Feb-12 04:00N 57°36' W 007°12'0 0.0 1012.7 7.5 6.6
2015-Feb-12 03:00N 57°36' W 007°12'0 0.0 1012.9 7.2 6.3
2015-Feb-12 02:00N 57°36' W 007°12'0 0.0 1013.1 6.9 5.8
2015-Feb-12 01:00N 57°36' W 007°12'0 0.0 1012.9 7.4 6.3
2015-Feb-12 00:00N 57°36' W 007°12'0 0.0 1013.0 7.8 6.6
2015-Feb-11 23:00N 57°36' W 007°12'0 0.0 1013.0 7.7 6.5
2015-Feb-11 22:00N 57°36' W 007°12'0 0.0 1013.1 7.5 6.3
2015-Feb-11 21:00N 57°36' W 007°12'10 9.6 1013.2 7.4 6.0
2015-Feb-11 20:00N 57°36' W 006°54'18 4.6 1012.2 7.9 6.4
2015-Feb-11 16:00N 57°54' W 006°48'1515.4 1013.0 6.1 4.1
2015-Feb-11 15:00N 57°42' W 006°30'7 6.8 1014.2 5.7 3.2
2015-Feb-11 14:00N 57°36' W 006°24'2612.9 1014.7 4.8 2.1
2015-Feb-11 12:00N 57°36' W 007°12'2612.9 1015.6 4.7 2.8
2015-Feb-11 10:00N 57°36' W 006°24'0 0.0 1016.6 4.6 2.5
2015-Feb-11 09:00N 57°36' W 006°24'   1017.5 5.0 2.9

Dump ship's entire track history